sensor_id;sensor_type;location;lat;lon;timestamp;temperature;humidity
72762;SHT30;60886;55.034;73.150;2023-06-10T00:00:59;14.86;74.05
72762;SHT30;60886;55.034;73.150;2023-06-10T00:04:07;14.95;74.57
72762;SHT30;60886;55.034;73.150;2023-06-10T00:07:08;15.00;74.12
72762;SHT30;60886;55.034;73.150;2023-06-10T00:10:11;15.03;73.84
72762;SHT30;60886;55.034;73.150;2023-06-10T00:13:12;15.04;74.51
72762;SHT30;60886;55.034;73.150;2023-06-10T00:16:14;15.09;75.07
72762;SHT30;60886;55.034;73.150;2023-06-10T00:19:15;15.17;74.93
72762;SHT30;60886;55.034;73.150;2023-06-10T00:22:17;15.27;74.96
72762;SHT30;60886;55.034;73.150;2023-06-10T00:25:19;15.34;75.14
72762;SHT30;60886;55.034;73.150;2023-06-10T00:28:21;15.43;75.10
72762;SHT30;60886;55.034;73.150;2023-06-10T00:31:23;15.53;74.93
72762;SHT30;60886;55.034;73.150;2023-06-10T00:34:25;15.51;74.73
72762;SHT30;60886;55.034;73.150;2023-06-10T00:37:27;15.46;74.61
72762;SHT30;60886;55.034;73.150;2023-06-10T00:40:29;15.33;75.20
72762;SHT30;60886;55.034;73.150;2023-06-10T00:43:33;15.31;75.32
72762;SHT30;60886;55.034;73.150;2023-06-10T00:46:35;15.27;75.33
72762;SHT30;60886;55.034;73.150;2023-06-10T00:49:38;15.34;75.38
72762;SHT30;60886;55.034;73.150;2023-06-10T00:52:42;15.54;74.96
72762;SHT30;60886;55.034;73.150;2023-06-10T00:55:45;15.75;74.48
72762;SHT30;60886;55.034;73.150;2023-06-10T00:58:47;15.88;74.04
72762;SHT30;60886;55.034;73.150;2023-06-10T01:01:49;16.11;73.72
72762;SHT30;60886;55.034;73.150;2023-06-10T01:04:51;16.30;73.29
72762;SHT30;60886;55.034;73.150;2023-06-10T01:08:06;16.36;72.73
72762;SHT30;60886;55.034;73.150;2023-06-10T01:11:17;16.26;73.51
72762;SHT30;60886;55.034;73.150;2023-06-10T01:14:22;16.19;73.45
72762;SHT30;60886;55.034;73.150;2023-06-10T01:17:24;16.22;73.65
72762;SHT30;60886;55.034;73.150;2023-06-10T01:20:30;16.29;73.58
72762;SHT30;60886;55.034;73.150;2023-06-10T01:23:33;16.48;73.39
72762;SHT30;60886;55.034;73.150;2023-06-10T01:26:35;17.18;72.63
72762;SHT30;60886;55.034;73.150;2023-06-10T01:30:03;17.54;71.88
72762;SHT30;60886;55.034;73.150;2023-06-10T01:33:09;17.88;70.98
72762;SHT30;60886;55.034;73.150;2023-06-10T01:36:13;18.03;71.04
72762;SHT30;60886;55.034;73.150;2023-06-10T01:39:18;18.19;70.40
72762;SHT30;60886;55.034;73.150;2023-06-10T01:42:21;17.85;70.95
72762;SHT30;60886;55.034;73.150;2023-06-10T01:45:25;17.74;71.02
72762;SHT30;60886;55.034;73.150;2023-06-10T01:48:26;17.61;71.55
72762;SHT30;60886;55.034;73.150;2023-06-10T01:51:28;17.68;70.86
72762;SHT30;60886;55.034;73.150;2023-06-10T01:54:31;17.57;71.21
72762;SHT30;60886;55.034;73.150;2023-06-10T01:57:32;18.09;70.60
72762;SHT30;60886;55.034;73.150;2023-06-10T02:00:34;18.64;69.72
72762;SHT30;60886;55.034;73.150;2023-06-10T02:03:36;18.60;68.14
72762;SHT30;60886;55.034;73.150;2023-06-10T02:06:38;18.63;67.99
72762;SHT30;60886;55.034;73.150;2023-06-10T02:09:40;18.53;68.24
72762;SHT30;60886;55.034;73.150;2023-06-10T02:12:41;18.46;68.52
72762;SHT30;60886;55.034;73.150;2023-06-10T02:15:43;18.52;68.46
72762;SHT30;60886;55.034;73.150;2023-06-10T02:18:44;18.42;68.16
72762;SHT30;60886;55.034;73.150;2023-06-10T02:21:47;18.44;68.31
72762;SHT30;60886;55.034;73.150;2023-06-10T02:24:49;18.39;68.51
72762;SHT30;60886;55.034;73.150;2023-06-10T02:27:50;18.60;68.67
72762;SHT30;60886;55.034;73.150;2023-06-10T02:30:53;18.71;69.51
72762;SHT30;60886;55.034;73.150;2023-06-10T02:33:55;19.14;69.84
72762;SHT30;60886;55.034;73.150;2023-06-10T02:36:58;19.55;67.98
72762;SHT30;60886;55.034;73.150;2023-06-10T02:39:59;19.44;67.50
72762;SHT30;60886;55.034;73.150;2023-06-10T02:43:02;19.31;67.55
72762;SHT30;60886;55.034;73.150;2023-06-10T02:46:05;19.38;65.36
72762;SHT30;60886;55.034;73.150;2023-06-10T02:49:07;19.76;64.55
72762;SHT30;60886;55.034;73.150;2023-06-10T02:52:09;19.93;63.28
72762;SHT30;60886;55.034;73.150;2023-06-10T02:55:13;19.94;63.95
72762;SHT30;60886;55.034;73.150;2023-06-10T02:58:18;20.09;63.13
72762;SHT30;60886;55.034;73.150;2023-06-10T03:01:19;20.19;60.86
72762;SHT30;60886;55.034;73.150;2023-06-10T03:04:33;20.20;61.74
72762;SHT30;60886;55.034;73.150;2023-06-10T03:07:40;20.16;59.01
72762;SHT30;60886;55.034;73.150;2023-06-10T03:10:42;20.33;58.50
72762;SHT30;60886;55.034;73.150;2023-06-10T03:13:47;20.40;59.11
72762;SHT30;60886;55.034;73.150;2023-06-10T03:16:51;20.48;59.49
72762;SHT30;60886;55.034;73.150;2023-06-10T03:19:54;20.53;58.69
72762;SHT30;60886;55.034;73.150;2023-06-10T03:22:58;20.39;57.91
72762;SHT30;60886;55.034;73.150;2023-06-10T03:25:59;20.36;58.06
72762;SHT30;60886;55.034;73.150;2023-06-10T03:29:07;20.44;57.14
72762;SHT30;60886;55.034;73.150;2023-06-10T03:32:08;20.45;58.10
72762;SHT30;60886;55.034;73.150;2023-06-10T03:35:12;20.54;60.24
72762;SHT30;60886;55.034;73.150;2023-06-10T03:38:14;20.57;58.06
72762;SHT30;60886;55.034;73.150;2023-06-10T03:41:15;20.71;59.62
72762;SHT30;60886;55.034;73.150;2023-06-10T03:44:19;21.17;60.04
72762;SHT30;60886;55.034;73.150;2023-06-10T03:47:20;21.72;62.93
72762;SHT30;60886;55.034;73.150;2023-06-10T03:50:23;21.73;59.33
72762;SHT30;60886;55.034;73.150;2023-06-10T03:53:25;21.62;58.73
72762;SHT30;60886;55.034;73.150;2023-06-10T03:56:27;21.75;58.32
72762;SHT30;60886;55.034;73.150;2023-06-10T03:59:29;21.75;59.47
72762;SHT30;60886;55.034;73.150;2023-06-10T04:02:31;21.86;59.06
72762;SHT30;60886;55.034;73.150;2023-06-10T04:05:34;22.17;56.49
72762;SHT30;60886;55.034;73.150;2023-06-10T04:08:37;22.40;55.56
72762;SHT30;60886;55.034;73.150;2023-06-10T04:11:40;22.50;52.70
72762;SHT30;60886;55.034;73.150;2023-06-10T04:14:42;22.71;57.42
72762;SHT30;60886;55.034;73.150;2023-06-10T04:17:46;22.99;53.92
72762;SHT30;60886;55.034;73.150;2023-06-10T04:20:48;23.11;54.38
72762;SHT30;60886;55.034;73.150;2023-06-10T04:23:49;23.33;53.43
72762;SHT30;60886;55.034;73.150;2023-06-10T04:26:51;23.32;49.62
72762;SHT30;60886;55.034;73.150;2023-06-10T04:29:53;23.53;52.06
72762;SHT30;60886;55.034;73.150;2023-06-10T04:32:55;23.42;49.70
72762;SHT30;60886;55.034;73.150;2023-06-10T04:35:57;23.55;47.01
72762;SHT30;60886;55.034;73.150;2023-06-10T04:39:06;23.73;44.53
72762;SHT30;60886;55.034;73.150;2023-06-10T04:42:09;23.96;50.02
72762;SHT30;60886;55.034;73.150;2023-06-10T04:45:12;24.09;47.37
72762;SHT30;60886;55.034;73.150;2023-06-10T04:48:14;24.13;51.32
72762;SHT30;60886;55.034;73.150;2023-06-10T04:51:16;24.28;47.21
72762;SHT30;60886;55.034;73.150;2023-06-10T04:54:17;24.18;46.97
72762;SHT30;60886;55.034;73.150;2023-06-10T04:57:19;24.16;48.89
72762;SHT30;60886;55.034;73.150;2023-06-10T05:00:21;24.32;51.02
72762;SHT30;60886;55.034;73.150;2023-06-10T05:03:23;24.55;50.64
72762;SHT30;60886;55.034;73.150;2023-06-10T05:06:24;24.62;48.42
72762;SHT30;60886;55.034;73.150;2023-06-10T05:09:26;24.71;49.22
72762;SHT30;60886;55.034;73.150;2023-06-10T05:12:27;24.94;46.01
72762;SHT30;60886;55.034;73.150;2023-06-10T05:15:32;25.12;49.04
72762;SHT30;60886;55.034;73.150;2023-06-10T05:18:34;25.22;47.24
72762;SHT30;60886;55.034;73.150;2023-06-10T05:21:36;24.96;50.59
72762;SHT30;60886;55.034;73.150;2023-06-10T05:24:38;25.11;47.45
72762;SHT30;60886;55.034;73.150;2023-06-10T05:27:40;25.09;49.38
72762;SHT30;60886;55.034;73.150;2023-06-10T05:30:43;25.16;45.62
72762;SHT30;60886;55.034;73.150;2023-06-10T05:33:44;25.15;47.14
72762;SHT30;60886;55.034;73.150;2023-06-10T05:36:46;25.23;47.86
72762;SHT30;60886;55.034;73.150;2023-06-10T05:39:48;25.46;45.24
72762;SHT30;60886;55.034;73.150;2023-06-10T05:42:50;25.49;44.51
72762;SHT30;60886;55.034;73.150;2023-06-10T05:45:51;25.43;43.47
72762;SHT30;60886;55.034;73.150;2023-06-10T05:48:53;25.39;45.38
72762;SHT30;60886;55.034;73.150;2023-06-10T05:51:54;25.04;44.37
72762;SHT30;60886;55.034;73.150;2023-06-10T05:54:57;25.16;43.26
72762;SHT30;60886;55.034;73.150;2023-06-10T05:58:00;25.39;43.85
72762;SHT30;60886;55.034;73.150;2023-06-10T06:01:02;25.46;41.81
72762;SHT30;60886;55.034;73.150;2023-06-10T06:04:06;25.45;44.67
72762;SHT30;60886;55.034;73.150;2023-06-10T06:07:08;25.53;44.22
72762;SHT30;60886;55.034;73.150;2023-06-10T06:10:10;25.51;43.57
72762;SHT30;60886;55.034;73.150;2023-06-10T06:13:12;25.63;41.49
72762;SHT30;60886;55.034;73.150;2023-06-10T06:16:13;25.60;42.97
72762;SHT30;60886;55.034;73.150;2023-06-10T06:19:15;25.54;41.65
72762;SHT30;60886;55.034;73.150;2023-06-10T06:22:17;25.49;41.97
72762;SHT30;60886;55.034;73.150;2023-06-10T06:25:22;25.53;42.28
72762;SHT30;60886;55.034;73.150;2023-06-10T06:28:24;25.66;40.95
72762;SHT30;60886;55.034;73.150;2023-06-10T06:31:30;25.73;40.68
72762;SHT30;60886;55.034;73.150;2023-06-10T06:34:32;25.98;42.74
72762;SHT30;60886;55.034;73.150;2023-06-10T06:37:35;26.08;42.59
72762;SHT30;60886;55.034;73.150;2023-06-10T06:40:59;26.32;41.98
72762;SHT30;60886;55.034;73.150;2023-06-10T06:44:06;26.40;42.68
72762;SHT30;60886;55.034;73.150;2023-06-10T06:47:13;26.61;41.87
72762;SHT30;60886;55.034;73.150;2023-06-10T06:50:14;26.91;42.01
72762;SHT30;60886;55.034;73.150;2023-06-10T06:53:17;26.58;39.85
72762;SHT30;60886;55.034;73.150;2023-06-10T06:56:19;26.34;38.97
72762;SHT30;60886;55.034;73.150;2023-06-10T06:59:21;26.40;40.38
72762;SHT30;60886;55.034;73.150;2023-06-10T07:02:23;26.44;40.22
72762;SHT30;60886;55.034;73.150;2023-06-10T07:05:26;26.38;36.56
72762;SHT30;60886;55.034;73.150;2023-06-10T07:08:28;26.38;39.73
72762;SHT30;60886;55.034;73.150;2023-06-10T07:11:30;26.28;37.89
72762;SHT30;60886;55.034;73.150;2023-06-10T07:14:31;26.24;37.52
72762;SHT30;60886;55.034;73.150;2023-06-10T07:17:33;25.88;37.37
72762;SHT30;60886;55.034;73.150;2023-06-10T07:20:35;26.00;36.52
72762;SHT30;60886;55.034;73.150;2023-06-10T07:23:37;26.11;37.64
72762;SHT30;60886;55.034;73.150;2023-06-10T07:26:42;25.97;39.00
72762;SHT30;60886;55.034;73.150;2023-06-10T07:29:44;26.00;39.71
72762;SHT30;60886;55.034;73.150;2023-06-10T07:32:45;25.98;39.70
72762;SHT30;60886;55.034;73.150;2023-06-10T07:35:47;26.00;39.21
72762;SHT30;60886;55.034;73.150;2023-06-10T07:38:49;25.90;39.52
72762;SHT30;60886;55.034;73.150;2023-06-10T07:41:51;25.87;38.45
72762;SHT30;60886;55.034;73.150;2023-06-10T07:44:55;25.70;38.52
72762;SHT30;60886;55.034;73.150;2023-06-10T07:47:56;25.51;38.83
72762;SHT30;60886;55.034;73.150;2023-06-10T07:50:58;25.37;40.70
72762;SHT30;60886;55.034;73.150;2023-06-10T07:54:06;25.33;40.83
72762;SHT30;60886;55.034;73.150;2023-06-10T07:57:08;25.36;40.42
72762;SHT30;60886;55.034;73.150;2023-06-10T08:00:10;25.33;41.17
72762;SHT30;60886;55.034;73.150;2023-06-10T08:03:14;25.20;40.75
72762;SHT30;60886;55.034;73.150;2023-06-10T08:06:16;25.01;40.51
72762;SHT30;60886;55.034;73.150;2023-06-10T08:09:18;24.85;42.00
72762;SHT30;60886;55.034;73.150;2023-06-10T08:12:20;24.76;42.90
72762;SHT30;60886;55.034;73.150;2023-06-10T08:15:21;24.81;41.90
72762;SHT30;60886;55.034;73.150;2023-06-10T08:18:23;24.94;43.85
72762;SHT30;60886;55.034;73.150;2023-06-10T08:21:24;25.04;43.71
72762;SHT30;60886;55.034;73.150;2023-06-10T08:24:26;25.09;43.75
72762;SHT30;60886;55.034;73.150;2023-06-10T08:27:27;25.12;43.54
72762;SHT30;60886;55.034;73.150;2023-06-10T08:30:30;25.11;45.01
72762;SHT30;60886;55.034;73.150;2023-06-10T08:33:32;25.12;48.37
72762;SHT30;60886;55.034;73.150;2023-06-10T08:36:36;25.42;46.06
72762;SHT30;60886;55.034;73.150;2023-06-10T08:39:40;25.65;44.42
72762;SHT30;60886;55.034;73.150;2023-06-10T08:43:02;25.87;42.43
72762;SHT30;60886;55.034;73.150;2023-06-10T08:46:09;26.05;41.51
72762;SHT30;60886;55.034;73.150;2023-06-10T08:49:18;26.10;41.84
72762;SHT30;60886;55.034;73.150;2023-06-10T08:52:21;26.24;40.94
72762;SHT30;60886;55.034;73.150;2023-06-10T08:55:32;26.24;39.30
72762;SHT30;60886;55.034;73.150;2023-06-10T08:58:34;26.18;41.02
72762;SHT30;60886;55.034;73.150;2023-06-10T09:01:43;26.04;41.64
72762;SHT30;60886;55.034;73.150;2023-06-10T09:04:46;25.86;41.69
72762;SHT30;60886;55.034;73.150;2023-06-10T09:07:49;25.43;41.52
72762;SHT30;60886;55.034;73.150;2023-06-10T09:10:52;25.60;41.93
72762;SHT30;60886;55.034;73.150;2023-06-10T09:13:54;25.80;42.48
72762;SHT30;60886;55.034;73.150;2023-06-10T09:16:55;25.78;41.64
72762;SHT30;60886;55.034;73.150;2023-06-10T09:20:00;25.91;41.39
72762;SHT30;60886;55.034;73.150;2023-06-10T09:23:07;26.13;42.33
72762;SHT30;60886;55.034;73.150;2023-06-10T09:26:09;25.90;42.23
72762;SHT30;60886;55.034;73.150;2023-06-10T09:29:12;26.04;41.71
72762;SHT30;60886;55.034;73.150;2023-06-10T09:32:14;26.07;41.62
72762;SHT30;60886;55.034;73.150;2023-06-10T09:35:16;26.10;40.64
72762;SHT30;60886;55.034;73.150;2023-06-10T09:38:22;26.21;40.91
72762;SHT30;60886;55.034;73.150;2023-06-10T09:41:32;26.21;39.86
72762;SHT30;60886;55.034;73.150;2023-06-10T09:44:35;26.27;40.04
72762;SHT30;60886;55.034;73.150;2023-06-10T09:47:36;26.38;39.80
72762;SHT30;60886;55.034;73.150;2023-06-10T09:50:44;26.34;39.97
72762;SHT30;60886;55.034;73.150;2023-06-10T09:53:53;26.27;39.24
72762;SHT30;60886;55.034;73.150;2023-06-10T09:56:55;26.20;40.06
72762;SHT30;60886;55.034;73.150;2023-06-10T09:59:57;26.17;40.06
72762;SHT30;60886;55.034;73.150;2023-06-10T10:02:59;26.20;39.77
72762;SHT30;60886;55.034;73.150;2023-06-10T10:06:01;26.04;38.86
72762;SHT30;60886;55.034;73.150;2023-06-10T10:09:06;25.93;38.92
72762;SHT30;60886;55.034;73.150;2023-06-10T10:12:10;25.90;39.04
72762;SHT30;60886;55.034;73.150;2023-06-10T10:15:12;25.86;40.19
72762;SHT30;60886;55.034;73.150;2023-06-10T10:18:17;25.87;39.68
72762;SHT30;60886;55.034;73.150;2023-06-10T10:21:24;25.73;39.69
72762;SHT30;60886;55.034;73.150;2023-06-10T10:24:34;25.65;40.31
72762;SHT30;60886;55.034;73.150;2023-06-10T10:27:44;25.65;40.30
72762;SHT30;60886;55.034;73.150;2023-06-10T10:30:52;25.67;39.52
72762;SHT30;60886;55.034;73.150;2023-06-10T10:34:04;25.53;39.78
72762;SHT30;60886;55.034;73.150;2023-06-10T10:37:06;25.46;39.44
72762;SHT30;60886;55.034;73.150;2023-06-10T10:40:08;25.43;40.01
72762;SHT30;60886;55.034;73.150;2023-06-10T10:43:10;25.45;39.67
72762;SHT30;60886;55.034;73.150;2023-06-10T10:46:14;25.46;39.34
72762;SHT30;60886;55.034;73.150;2023-06-10T10:49:17;25.39;40.65
72762;SHT30;60886;55.034;73.150;2023-06-10T10:52:19;25.45;39.73
72762;SHT30;60886;55.034;73.150;2023-06-10T10:55:21;25.46;39.50
72762;SHT30;60886;55.034;73.150;2023-06-10T10:58:24;25.43;39.74
72762;SHT30;60886;55.034;73.150;2023-06-10T11:01:39;25.36;39.72
72762;SHT30;60886;55.034;73.150;2023-06-10T11:04:48;25.30;39.09
72762;SHT30;60886;55.034;73.150;2023-06-10T11:07:54;25.25;38.94
72762;SHT30;60886;55.034;73.150;2023-06-10T11:10:59;25.12;38.79
72762;SHT30;60886;55.034;73.150;2023-06-10T11:14:07;24.98;39.08
72762;SHT30;60886;55.034;73.150;2023-06-10T11:17:20;24.84;39.95
72762;SHT30;60886;55.034;73.150;2023-06-10T11:23:46;24.64;38.75
72762;SHT30;60886;55.034;73.150;2023-06-10T11:26:48;24.65;39.13
72762;SHT30;60886;55.034;73.150;2023-06-10T11:33:07;24.68;38.61
72762;SHT30;60886;55.034;73.150;2023-06-10T11:36:09;24.68;38.25
72762;SHT30;60886;55.034;73.150;2023-06-10T11:39:11;24.72;39.11
72762;SHT30;60886;55.034;73.150;2023-06-10T11:42:13;24.85;37.98
72762;SHT30;60886;55.034;73.150;2023-06-10T11:45:15;25.09;38.19
72762;SHT30;60886;55.034;73.150;2023-06-10T11:48:20;25.35;37.69
72762;SHT30;60886;55.034;73.150;2023-06-10T11:51:21;25.45;37.07
72762;SHT30;60886;55.034;73.150;2023-06-10T11:54:23;25.45;37.40
72762;SHT30;60886;55.034;73.150;2023-06-10T11:57:25;25.23;37.72
72762;SHT30;60886;55.034;73.150;2023-06-10T12:00:26;25.19;36.54
72762;SHT30;60886;55.034;73.150;2023-06-10T12:03:36;25.25;35.75
72762;SHT30;60886;55.034;73.150;2023-06-10T12:06:49;25.08;37.48
72762;SHT30;60886;55.034;73.150;2023-06-10T12:10:00;24.99;36.87
72762;SHT30;60886;55.034;73.150;2023-06-10T12:13:01;24.95;36.06
72762;SHT30;60886;55.034;73.150;2023-06-10T12:16:09;24.86;37.04
72762;SHT30;60886;55.034;73.150;2023-06-10T12:19:10;24.79;36.45
72762;SHT30;60886;55.034;73.150;2023-06-10T12:22:12;24.60;37.35
72762;SHT30;60886;55.034;73.150;2023-06-10T12:25:14;24.47;36.40
72762;SHT30;60886;55.034;73.150;2023-06-10T12:28:15;24.48;35.92
72762;SHT30;60886;55.034;73.150;2023-06-10T12:31:18;24.44;36.08
72762;SHT30;60886;55.034;73.150;2023-06-10T12:34:20;24.32;36.42
72762;SHT30;60886;55.034;73.150;2023-06-10T12:37:21;24.31;36.12
72762;SHT30;60886;55.034;73.150;2023-06-10T12:40:30;24.32;37.32
72762;SHT30;60886;55.034;73.150;2023-06-10T12:43:39;24.28;36.70
72762;SHT30;60886;55.034;73.150;2023-06-10T12:46:41;24.22;35.25
72762;SHT30;60886;55.034;73.150;2023-06-10T12:49:42;24.13;36.19
72762;SHT30;60886;55.034;73.150;2023-06-10T12:52:44;24.14;35.78
72762;SHT30;60886;55.034;73.150;2023-06-10T12:55:47;24.10;35.93
72762;SHT30;60886;55.034;73.150;2023-06-10T12:58:48;24.09;35.77
72762;SHT30;60886;55.034;73.150;2023-06-10T13:01:54;24.06;35.94
72762;SHT30;60886;55.034;73.150;2023-06-10T13:04:56;24.03;36.50
72762;SHT30;60886;55.034;73.150;2023-06-10T13:07:58;23.97;36.53
72762;SHT30;60886;55.034;73.150;2023-06-10T13:10:59;23.89;37.01
72762;SHT30;60886;55.034;73.150;2023-06-10T13:14:06;23.73;36.88
72762;SHT30;60886;55.034;73.150;2023-06-10T13:17:08;23.70;35.73
72762;SHT30;60886;55.034;73.150;2023-06-10T13:20:10;23.67;36.52
72762;SHT30;60886;55.034;73.150;2023-06-10T13:23:12;23.62;35.64
72762;SHT30;60886;55.034;73.150;2023-06-10T13:26:14;23.59;35.30
72762;SHT30;60886;55.034;73.150;2023-06-10T13:29:18;23.55;36.15
72762;SHT30;60886;55.034;73.150;2023-06-10T13:32:20;23.52;35.86
72762;SHT30;60886;55.034;73.150;2023-06-10T13:35:22;23.50;36.16
72762;SHT30;60886;55.034;73.150;2023-06-10T13:38:23;23.47;34.94
72762;SHT30;60886;55.034;73.150;2023-06-10T13:41:25;23.50;35.86
72762;SHT30;60886;55.034;73.150;2023-06-10T13:44:28;23.52;36.50
72762;SHT30;60886;55.034;73.150;2023-06-10T13:47:32;23.50;36.50
72762;SHT30;60886;55.034;73.150;2023-06-10T13:50:33;23.50;36.42
72762;SHT30;60886;55.034;73.150;2023-06-10T13:53:36;23.46;36.61
72762;SHT30;60886;55.034;73.150;2023-06-10T13:56:38;23.42;36.84
72762;SHT30;60886;55.034;73.150;2023-06-10T13:59:39;23.36;36.02
72762;SHT30;60886;55.034;73.150;2023-06-10T14:02:41;23.33;35.85
72762;SHT30;60886;55.034;73.150;2023-06-10T14:05:43;23.30;35.81
72762;SHT30;60886;55.034;73.150;2023-06-10T14:08:44;23.25;35.58
72762;SHT30;60886;55.034;73.150;2023-06-10T14:11:46;23.29;35.83
72762;SHT30;60886;55.034;73.150;2023-06-10T14:14:48;23.30;35.71
72762;SHT30;60886;55.034;73.150;2023-06-10T14:17:50;23.35;36.22
72762;SHT30;60886;55.034;73.150;2023-06-10T14:20:51;23.38;35.78
72762;SHT30;60886;55.034;73.150;2023-06-10T14:23:53;23.39;35.94
72762;SHT30;60886;55.034;73.150;2023-06-10T14:26:54;23.38;35.40
72762;SHT30;60886;55.034;73.150;2023-06-10T14:29:56;23.36;35.61
72762;SHT30;60886;55.034;73.150;2023-06-10T14:32:57;23.26;35.60
72762;SHT30;60886;55.034;73.150;2023-06-10T14:35:59;23.22;35.74
72762;SHT30;60886;55.034;73.150;2023-06-10T14:39:06;23.15;35.90
72762;SHT30;60886;55.034;73.150;2023-06-10T14:42:08;23.11;36.33
72762;SHT30;60886;55.034;73.150;2023-06-10T14:45:09;23.06;36.14
72762;SHT30;60886;55.034;73.150;2023-06-10T14:48:11;23.01;36.42
72762;SHT30;60886;55.034;73.150;2023-06-10T14:51:14;22.99;36.55
72762;SHT30;60886;55.034;73.150;2023-06-10T14:54:15;23.02;36.97
72762;SHT30;60886;55.034;73.150;2023-06-10T14:57:17;22.96;37.02
72762;SHT30;60886;55.034;73.150;2023-06-10T15:00:19;22.90;36.88
72762;SHT30;60886;55.034;73.150;2023-06-10T15:03:25;22.83;37.19
72762;SHT30;60886;55.034;73.150;2023-06-10T15:06:26;22.69;37.48
72762;SHT30;60886;55.034;73.150;2023-06-10T15:09:29;22.54;37.52
72762;SHT30;60886;55.034;73.150;2023-06-10T15:12:31;22.41;37.78
72762;SHT30;60886;55.034;73.150;2023-06-10T15:15:33;22.29;38.85
72762;SHT30;60886;55.034;73.150;2023-06-10T15:18:35;22.18;38.43
72762;SHT30;60886;55.034;73.150;2023-06-10T15:21:36;22.07;39.43
72762;SHT30;60886;55.034;73.150;2023-06-10T15:24:38;21.92;41.28
72762;SHT30;60886;55.034;73.150;2023-06-10T15:27:40;21.76;41.40
72762;SHT30;60886;55.034;73.150;2023-06-10T15:30:41;21.65;43.38
72762;SHT30;60886;55.034;73.150;2023-06-10T15:33:43;21.53;42.25
72762;SHT30;60886;55.034;73.150;2023-06-10T15:36:44;21.48;41.43
72762;SHT30;60886;55.034;73.150;2023-06-10T15:39:46;21.41;41.45
72762;SHT30;60886;55.034;73.150;2023-06-10T15:42:48;21.34;41.56
72762;SHT30;60886;55.034;73.150;2023-06-10T15:45:49;21.24;41.38
72762;SHT30;60886;55.034;73.150;2023-06-10T15:48:51;21.12;42.38
72762;SHT30;60886;55.034;73.150;2023-06-10T15:51:54;20.97;47.71
72762;SHT30;60886;55.034;73.150;2023-06-10T15:54:55;20.71;45.34
72762;SHT30;60886;55.034;73.150;2023-06-10T15:57:57;20.60;43.49
72762;SHT30;60886;55.034;73.150;2023-06-10T16:01:00;20.43;46.14
72762;SHT30;60886;55.034;73.150;2023-06-10T16:04:06;20.33;46.80
72762;SHT30;60886;55.034;73.150;2023-06-10T16:07:08;20.14;48.51
72762;SHT30;60886;55.034;73.150;2023-06-10T16:10:09;20.10;50.86
72762;SHT30;60886;55.034;73.150;2023-06-10T16:13:11;19.97;50.62
72762;SHT30;60886;55.034;73.150;2023-06-10T16:16:12;19.85;51.84
72762;SHT30;60886;55.034;73.150;2023-06-10T16:19:14;19.71;53.72
72762;SHT30;60886;55.034;73.150;2023-06-10T16:22:15;19.52;54.53
72762;SHT30;60886;55.034;73.150;2023-06-10T16:25:17;19.41;52.47
72762;SHT30;60886;55.034;73.150;2023-06-10T16:28:18;19.31;52.61
72762;SHT30;60886;55.034;73.150;2023-06-10T16:31:22;19.18;54.45
72762;SHT30;60886;55.034;73.150;2023-06-10T16:34:23;19.03;54.23
72762;SHT30;60886;55.034;73.150;2023-06-10T16:37:25;18.97;55.23
72762;SHT30;60886;55.034;73.150;2023-06-10T16:40:26;18.87;55.16
72762;SHT30;60886;55.034;73.150;2023-06-10T16:43:28;18.70;54.17
72762;SHT30;60886;55.034;73.150;2023-06-10T16:46:30;18.70;52.96
72762;SHT30;60886;55.034;73.150;2023-06-10T16:49:31;18.57;54.79
72762;SHT30;60886;55.034;73.150;2023-06-10T16:52:33;18.47;53.00
72762;SHT30;60886;55.034;73.150;2023-06-10T16:55:35;18.50;54.35
72762;SHT30;60886;55.034;73.150;2023-06-10T16:58:39;18.42;53.13
72762;SHT30;60886;55.034;73.150;2023-06-10T17:01:41;18.37;55.33
72762;SHT30;60886;55.034;73.150;2023-06-10T17:04:42;18.29;55.46
72762;SHT30;60886;55.034;73.150;2023-06-10T17:07:43;18.22;55.85
72762;SHT30;60886;55.034;73.150;2023-06-10T17:10:46;18.21;57.55
72762;SHT30;60886;55.034;73.150;2023-06-10T17:13:48;18.10;57.25
72762;SHT30;60886;55.034;73.150;2023-06-10T17:16:49;18.02;58.12
72762;SHT30;60886;55.034;73.150;2023-06-10T17:19:51;17.92;58.56
72762;SHT30;60886;55.034;73.150;2023-06-10T17:22:52;17.88;56.86
72762;SHT30;60886;55.034;73.150;2023-06-10T17:25:54;17.89;57.62
72762;SHT30;60886;55.034;73.150;2023-06-10T17:28:56;17.82;54.23
72762;SHT30;60886;55.034;73.150;2023-06-10T17:31:57;17.78;54.71
72762;SHT30;60886;55.034;73.150;2023-06-10T17:34:59;17.62;56.00
72762;SHT30;60886;55.034;73.150;2023-06-10T17:38:20;17.57;56.11
72762;SHT30;60886;55.034;73.150;2023-06-10T17:41:28;17.50;57.82
72762;SHT30;60886;55.034;73.150;2023-06-10T17:44:30;17.48;55.94
72762;SHT30;60886;55.034;73.150;2023-06-10T17:47:32;17.42;54.67
72762;SHT30;60886;55.034;73.150;2023-06-10T17:50:33;17.41;54.83
72762;SHT30;60886;55.034;73.150;2023-06-10T17:53:35;17.37;55.12
72762;SHT30;60886;55.034;73.150;2023-06-10T17:56:36;17.35;55.27
72762;SHT30;60886;55.034;73.150;2023-06-10T17:59:38;17.23;56.95
72762;SHT30;60886;55.034;73.150;2023-06-10T18:02:41;17.21;56.21
72762;SHT30;60886;55.034;73.150;2023-06-10T18:05:43;17.21;56.83
72762;SHT30;60886;55.034;73.150;2023-06-10T18:08:44;17.08;58.95
72762;SHT30;60886;55.034;73.150;2023-06-10T18:11:46;16.99;55.75
72762;SHT30;60886;55.034;73.150;2023-06-10T18:14:49;17.03;57.84
72762;SHT30;60886;55.034;73.150;2023-06-10T18:17:50;16.99;57.13
72762;SHT30;60886;55.034;73.150;2023-06-10T18:20:52;16.90;58.33
72762;SHT30;60886;55.034;73.150;2023-06-10T18:23:53;16.86;57.92
72762;SHT30;60886;55.034;73.150;2023-06-10T18:26:55;16.83;55.58
72762;SHT30;60886;55.034;73.150;2023-06-10T18:29:57;16.84;55.73
72762;SHT30;60886;55.034;73.150;2023-06-10T18:32:59;16.79;56.53
72762;SHT30;60886;55.034;73.150;2023-06-10T18:36:00;16.75;56.01
72762;SHT30;60886;55.034;73.150;2023-06-10T18:39:06;16.66;58.47
72762;SHT30;60886;55.034;73.150;2023-06-10T18:42:08;16.56;55.07
72762;SHT30;60886;55.034;73.150;2023-06-10T18:45:10;16.52;57.22
72762;SHT30;60886;55.034;73.150;2023-06-10T18:48:12;16.48;57.85
72762;SHT30;60886;55.034;73.150;2023-06-10T18:51:13;16.38;58.74
72762;SHT30;60886;55.034;73.150;2023-06-10T18:54:15;16.28;56.72
72762;SHT30;60886;55.034;73.150;2023-06-10T18:57:18;16.21;56.38
72762;SHT30;60886;55.034;73.150;2023-06-10T19:00:20;16.16;56.49
72762;SHT30;60886;55.034;73.150;2023-06-10T19:03:21;16.09;56.93